createdAt,value
2019-05-07T11:41:22.902Z,2120.62
2019-05-07T11:42:22.119Z,2115.00
2019-05-07T11:43:22.281Z,2210.62
2019-05-07T11:44:23.014Z,2373.75
2019-05-07T11:45:22.744Z,2396.25
2019-05-07T11:46:22.260Z,2221.87
2019-05-07T11:47:22.518Z,2154.37
2019-05-07T11:48:22.159Z,2075.62
2019-05-07T11:49:22.715Z,1935.00
2019-05-07T11:50:22.592Z,1867.50
2019-05-07T11:51:23.128Z,804.37
2019-05-07T11:52:22.838Z,2137.50
2019-05-07T11:53:22.104Z,2401.87
2019-05-07T11:54:21.904Z,1305.00
2019-05-07T11:55:22.412Z,421.87
2019-05-07T11:56:22.028Z,382.50
2019-05-07T11:57:22.192Z,354.37
2019-05-07T11:58:22.088Z,343.12
2019-05-07T11:59:22.077Z,348.75
2019-05-07T12:00:21.959Z,354.37
2019-05-07T12:01:22.438Z,371.25
2019-05-07T12:02:22.683Z,399.37
2019-05-07T12:03:22.155Z,416.25
2019-05-07T12:04:21.797Z,410.62
2019-05-07T12:05:22.718Z,410.62
2019-05-07T12:06:21.782Z,410.62
2019-05-07T12:07:22.322Z,421.87
2019-05-07T12:08:22.428Z,843.75
2019-05-07T12:09:22.760Z,1878.75
2019-05-07T12:10:22.250Z,1918.12
2019-05-07T12:11:21.915Z,1912.50
2019-05-07T12:12:22.261Z,1788.75
2019-05-07T12:13:21.933Z,1743.75
2019-05-07T12:14:30.860Z,1951.87
2019-05-07T12:15:46.150Z,331.87
2019-05-07T12:16:46.142Z,315.00
2019-05-07T12:17:46.132Z,320.62
2019-05-07T12:18:46.120Z,337.50
2019-05-07T12:19:46.108Z,343.12
2019-05-07T12:20:46.103Z,331.87
2019-05-07T12:21:46.086Z,343.12
2019-05-07T12:22:46.074Z,320.62
2019-05-07T12:23:46.068Z,320.62
2019-05-07T12:24:46.051Z,523.12
2019-05-07T12:25:46.044Z,1209.37
2019-05-07T12:26:46.039Z,1552.50
2019-05-07T12:27:46.019Z,1440.00
2019-05-07T12:28:46.009Z,1305.00
2019-05-07T12:29:45.997Z,1220.62
2019-05-07T12:30:45.989Z,1113.75
2019-05-07T12:31:45.974Z,1035.00
2019-05-07T12:32:45.965Z,1029.37
2019-05-07T12:33:45.954Z,1012.50
2019-05-07T12:34:45.947Z,894.37
2019-05-07T12:35:45.931Z,883.12
2019-05-07T12:36:45.920Z,821.25
2019-05-07T12:37:49.313Z,776.25
2019-05-07T12:38:45.899Z,821.25
2019-05-07T12:39:45.889Z,500.62
2019-05-07T12:40:45.876Z,337.50
2019-05-07T12:41:45.867Z,320.62
2019-05-07T12:42:45.858Z,309.37
2019-05-07T12:43:45.842Z,337.50
2019-05-07T12:44:45.832Z,354.37
2019-05-07T12:45:45.825Z,360.00
2019-05-07T12:46:45.811Z,360.00
2019-05-07T12:47:45.801Z,360.00
2019-05-07T12:48:45.789Z,438.75
2019-05-07T12:49:45.779Z,438.75
2019-05-07T12:50:45.773Z,444.37
2019-05-07T12:51:45.761Z,388.12
2019-05-07T12:52:45.747Z,376.87
2019-05-07T12:53:45.737Z,365.62
2019-05-07T12:54:45.725Z,371.25
2019-05-07T12:55:45.718Z,365.62
2019-05-07T12:56:45.710Z,337.50
2019-05-07T12:57:45.691Z,331.87
2019-05-07T12:58:45.684Z,315.00
2019-05-07T12:59:45.673Z,298.12
2019-05-07T13:00:45.666Z,298.12
2019-05-07T13:01:45.651Z,275.62
2019-05-07T13:02:45.637Z,270.00
2019-05-07T13:03:45.626Z,270.00
2019-05-07T13:04:45.614Z,270.00
2019-05-07T13:05:45.605Z,264.37
2019-05-07T13:06:45.595Z,253.12
2019-05-07T13:07:45.584Z,264.37
2019-05-07T13:08:45.573Z,286.87
2019-05-07T13:09:45.561Z,298.12
2019-05-07T13:10:45.549Z,303.75
2019-05-07T13:11:45.538Z,292.50
2019-05-07T13:12:45.533Z,286.87
2019-05-07T13:13:45.521Z,270.00
2019-05-07T13:14:45.502Z,241.87
2019-05-07T13:15:45.493Z,225.00
2019-05-07T13:16:45.481Z,219.37
2019-05-07T13:17:45.471Z,219.37
2019-05-07T13:18:45.459Z,213.75
2019-05-07T13:19:45.448Z,208.12
2019-05-07T13:20:45.436Z,213.75
2019-05-07T13:21:49.283Z,230.62
2019-05-07T13:22:45.413Z,247.50
2019-05-07T13:23:45.411Z,247.50
2019-05-07T13:24:45.394Z,236.25
2019-05-07T13:25:45.382Z,236.25
2019-05-07T13:26:45.371Z,247.50
2019-05-07T13:27:45.363Z,247.50
2019-05-07T13:28:45.349Z,247.50
2019-05-07T13:29:45.341Z,247.50
2019-05-07T13:30:45.328Z,258.75
2019-05-07T13:31:45.314Z,258.75
2019-05-07T13:32:48.112Z,270.00
2019-05-07T13:33:45.307Z,264.37
2019-05-07T13:34:45.284Z,258.75
2019-05-07T13:35:45.276Z,258.75
2019-05-07T13:36:45.259Z,264.37
2019-05-07T13:37:46.455Z,275.62
2019-05-07T13:38:45.242Z,270.00
2019-05-07T13:39:45.235Z,258.75
2019-05-07T13:40:45.219Z,258.75
2019-05-07T13:41:45.219Z,258.75
2019-05-07T13:42:45.238Z,241.87
2019-05-07T13:43:45.228Z,236.25
2019-05-07T13:44:45.177Z,230.62
2019-05-07T13:45:45.178Z,225.00
2019-05-07T13:46:45.176Z,219.37
2019-05-07T13:47:45.179Z,213.75
2019-05-07T13:48:47.042Z,208.12
2019-05-07T13:49:45.115Z,202.50
2019-05-07T13:50:45.112Z,202.50
2019-05-07T13:51:45.093Z,196.87
2019-05-07T13:52:45.082Z,191.25
2019-05-07T13:53:45.073Z,185.62
2019-05-07T13:54:45.060Z,180.00
2019-05-07T13:55:45.058Z,180.00
2019-05-07T13:56:45.041Z,168.75
2019-05-07T13:57:45.032Z,163.12
2019-05-07T13:58:45.016Z,163.12
2019-05-07T13:59:45.008Z,157.50
2019-05-07T14:00:44.997Z,163.12
2019-05-07T14:01:44.992Z,168.75
2019-05-07T14:02:44.988Z,180.00
2019-05-07T14:03:44.966Z,191.25
2019-05-07T14:04:44.955Z,202.50
2019-05-07T14:05:44.940Z,208.12
2019-05-07T14:06:44.932Z,213.75
2019-05-07T14:07:44.928Z,213.75
2019-05-07T14:08:44.916Z,208.12
2019-05-07T14:09:44.899Z,213.75
2019-05-07T14:10:44.886Z,219.37
2019-05-07T14:11:44.877Z,225.00
2019-05-07T14:12:44.871Z,236.25
2019-05-07T14:13:44.858Z,247.50
2019-05-07T14:14:44.846Z,253.12
2019-05-07T14:15:44.834Z,247.50
2019-05-07T14:16:45.198Z,236.25
2019-05-07T14:17:44.826Z,225.00
2019-05-07T14:18:44.800Z,213.75
2019-05-07T14:19:44.795Z,219.37
2019-05-07T14:20:44.780Z,230.62
2019-05-07T14:21:44.772Z,236.25
2019-05-07T14:22:44.760Z,247.50
2019-05-07T14:23:44.747Z,258.75
2019-05-07T14:24:44.734Z,264.37
2019-05-07T14:25:44.724Z,270.00
2019-05-07T14:26:44.711Z,270.00
2019-05-07T14:27:44.703Z,264.37
2019-05-07T14:28:44.689Z,253.12
2019-05-07T14:29:44.691Z,247.50
2019-05-07T14:30:44.670Z,247.50
2019-05-07T14:31:44.661Z,236.25
2019-05-07T14:32:44.646Z,230.62
2019-05-07T14:33:44.634Z,225.00
2019-05-07T14:34:44.627Z,219.37
2019-05-07T14:35:44.612Z,219.37
2019-05-07T14:36:44.603Z,219.37
2019-05-07T14:37:44.595Z,213.75
2019-05-07T14:38:44.578Z,208.12
2019-05-07T14:39:44.572Z,202.50
2019-05-07T14:40:44.557Z,202.50
2019-05-07T14:41:44.547Z,208.12
2019-05-07T14:42:44.541Z,202.50
2019-05-07T14:43:44.526Z,196.87
2019-05-07T14:44:44.517Z,191.25
2019-05-07T14:46:50.840Z,174.37
2019-05-07T14:48:08.958Z,168.75
2019-05-07T14:49:08.949Z,163.12
2019-05-07T14:50:08.991Z,163.12
2019-05-07T14:51:08.930Z,157.50
2019-05-07T14:52:08.915Z,157.50
2019-05-07T14:53:08.912Z,163.12
2019-05-07T14:54:08.915Z,157.50
2019-05-07T14:55:08.880Z,163.12
2019-05-07T14:56:08.869Z,163.12
2019-05-07T14:57:08.867Z,163.12
2019-05-07T14:58:08.849Z,163.12
2019-05-07T14:59:08.845Z,174.37
2019-05-07T15:00:08.825Z,185.62
2019-05-07T15:01:08.815Z,191.25
2019-05-07T15:02:08.805Z,202.50
2019-05-07T15:03:08.794Z,208.12
2019-05-07T15:05:08.774Z,219.37
2019-05-07T15:06:08.760Z,225.00
2019-05-07T15:07:08.748Z,219.37
2019-05-07T15:08:11.735Z,225.00
2019-05-07T15:09:08.726Z,225.00
2019-05-07T15:10:08.715Z,225.00
2019-05-07T15:11:08.709Z,225.00
2019-05-07T15:12:11.419Z,225.00
2019-05-07T15:13:08.684Z,225.00
2019-05-07T15:14:08.671Z,236.25
2019-05-07T15:15:08.667Z,236.25
2019-05-07T15:16:08.650Z,230.62
2019-05-07T15:17:08.639Z,219.37
2019-05-07T15:18:08.628Z,213.75
2019-05-07T15:19:08.619Z,213.75
2019-05-07T15:20:08.606Z,219.37
2019-05-07T15:21:08.602Z,213.75
2019-05-07T15:22:08.587Z,208.12
2019-05-07T15:23:08.574Z,208.12
2019-05-07T15:24:08.561Z,208.12
2019-05-07T15:25:08.558Z,208.12
2019-05-07T15:26:08.543Z,213.75
2019-05-07T15:27:08.534Z,213.75
2019-05-07T15:28:08.518Z,219.37
2019-05-07T15:29:08.507Z,225.00
2019-05-07T15:30:08.495Z,230.62
2019-05-07T15:31:08.492Z,230.62
2019-05-07T15:32:08.474Z,236.25
2019-05-07T15:33:08.468Z,236.25
2019-05-07T15:34:08.451Z,236.25
2019-05-07T15:35:08.440Z,236.25
2019-05-07T15:36:08.430Z,230.62
2019-05-07T15:37:08.418Z,225.00
2019-05-07T15:38:08.410Z,213.75
2019-05-07T15:39:08.395Z,202.50
2019-05-07T15:40:08.384Z,191.25
2019-05-07T15:41:08.373Z,174.37
2019-05-07T15:42:08.360Z,163.12
2019-05-07T15:43:08.358Z,151.87
2019-05-07T15:44:08.347Z,146.25
2019-05-07T15:45:08.384Z,146.25
2019-05-07T15:46:08.344Z,140.62
2019-05-07T15:48:08.292Z,151.87
2019-05-07T15:49:08.281Z,163.12
2019-05-07T15:50:08.281Z,157.50
2019-05-07T15:51:08.258Z,157.50
2019-05-07T15:52:08.248Z,163.12
2019-05-07T15:53:08.244Z,168.75
2019-05-07T15:54:08.225Z,174.37
2019-05-07T15:55:08.215Z,174.37
2019-05-07T15:56:08.205Z,168.75
2019-05-07T15:57:08.195Z,168.75
2019-05-07T15:58:08.182Z,163.12
2019-05-07T15:59:08.169Z,163.12
2019-05-07T16:01:08.162Z,163.12
2019-05-07T16:03:08.148Z,168.75
2019-05-07T16:04:19.090Z,168.75
2019-05-07T16:05:32.585Z,168.75
2019-05-07T16:06:32.567Z,163.12
2019-05-07T16:07:32.836Z,151.87
2019-05-07T16:08:32.547Z,146.25
2019-05-07T16:09:32.718Z,146.25
2019-05-07T16:10:32.528Z,146.25
2019-05-07T16:11:32.643Z,146.25
2019-05-07T16:12:32.502Z,140.62
2019-05-07T16:13:32.785Z,140.62
2019-05-07T16:14:32.487Z,135.00
2019-05-07T16:15:32.469Z,129.37
2019-05-07T16:16:33.338Z,123.75
2019-05-07T16:17:32.841Z,123.75
2019-05-07T16:18:32.757Z,123.75
2019-05-07T16:19:32.420Z,123.75
2019-05-07T16:20:32.708Z,123.75
2019-05-07T16:21:32.673Z,123.75
2019-05-07T16:22:32.799Z,123.75
2019-05-07T16:23:32.697Z,118.12
2019-05-07T16:24:32.365Z,118.12
2019-05-07T16:25:32.812Z,123.75
2019-05-07T16:26:32.766Z,123.75
2019-05-07T16:27:32.330Z,129.37
2019-05-07T16:28:32.506Z,129.37
2019-05-07T16:29:35.606Z,129.37
2019-05-07T16:30:32.536Z,123.75
2019-05-07T16:31:33.220Z,123.75
2019-05-07T16:32:32.850Z,123.75
2019-05-07T16:33:34.732Z,123.75
2019-05-07T16:34:32.676Z,123.75
2019-05-07T16:35:32.301Z,123.75
2019-05-07T16:36:32.932Z,123.75
2019-05-07T16:37:32.348Z,118.12
2019-05-07T16:38:32.798Z,118.12
2019-05-07T16:39:32.684Z,112.50
2019-05-07T16:40:32.467Z,112.50
2019-05-07T16:41:32.175Z,112.50
2019-05-07T16:42:32.296Z,106.87
2019-05-07T16:43:32.160Z,106.87
2019-05-07T16:44:33.110Z,101.25
2019-05-07T16:45:32.136Z,101.25
2019-05-07T16:46:32.126Z,101.25
2019-05-07T16:47:32.116Z,101.25
2019-05-07T16:48:32.700Z,101.25
2019-05-07T16:49:32.088Z,101.25
2019-05-07T16:50:32.738Z,101.25
2019-05-07T16:51:33.052Z,95.62
2019-05-07T16:52:34.913Z,95.62
2019-05-07T16:53:35.047Z,95.62
2019-05-07T16:54:32.033Z,95.62
2019-05-07T16:55:32.768Z,95.62
2019-05-07T16:56:33.322Z,95.62
2019-05-07T16:57:33.687Z,95.62
2019-05-07T16:58:34.869Z,95.62
2019-05-07T16:59:32.525Z,101.25
2019-05-07T17:00:31.999Z,101.25
2019-05-07T17:01:32.532Z,101.25
2019-05-07T17:02:33.880Z,101.25
2019-05-07T17:03:32.006Z,95.62
2019-05-07T17:04:32.068Z,95.62
2019-05-07T17:05:32.172Z,90.00
2019-05-07T17:06:32.253Z,90.00
2019-05-07T17:07:32.197Z,84.37
2019-05-07T17:08:32.083Z,84.37
2019-05-07T17:09:32.308Z,84.37
2019-05-07T17:10:31.994Z,84.37
2019-05-07T17:11:32.197Z,84.37
2019-05-07T17:13:32.026Z,78.75
2019-05-07T17:14:31.817Z,78.75
2019-05-07T17:15:31.797Z,73.12
2019-05-07T17:16:31.922Z,73.12
2019-05-07T17:17:32.234Z,73.12
2019-05-07T17:18:32.574Z,73.12
2019-05-07T17:19:32.049Z,67.50
2019-05-07T17:20:32.785Z,67.50
2019-05-07T17:21:32.494Z,61.87
2019-05-07T17:22:32.265Z,61.87
2019-05-07T17:23:43.669Z,61.87
2019-05-07T17:24:33.064Z,56.25
2019-05-07T17:25:33.383Z,56.25
2019-05-07T17:26:31.672Z,56.25
2019-05-07T17:27:32.110Z,56.25
2019-05-07T17:28:32.051Z,56.25
2019-05-07T17:30:32.073Z,56.25
2019-05-07T17:31:31.912Z,56.25
2019-05-07T17:32:32.122Z,56.25
2019-05-07T17:33:32.096Z,56.25
2019-05-07T17:34:31.589Z,56.25
2019-05-07T17:35:34.181Z,61.87
2019-05-07T17:36:33.041Z,61.87
2019-05-07T17:37:31.554Z,56.25
2019-05-07T17:38:32.213Z,56.25
2019-05-07T17:39:32.152Z,56.25
2019-05-07T17:40:32.129Z,56.25
2019-05-07T17:41:32.211Z,50.62
2019-05-07T17:42:32.869Z,50.62
2019-05-07T17:43:32.473Z,50.62
2019-05-07T17:44:32.321Z,50.62
2019-05-07T17:45:32.832Z,45.00
2019-05-07T17:46:32.381Z,45.00
2019-05-07T17:47:32.217Z,45.00
2019-05-07T17:48:32.620Z,39.37
2019-05-07T17:49:32.809Z,39.37
2019-05-07T17:50:32.295Z,39.37
2019-05-07T17:51:32.362Z,39.37
2019-05-07T17:52:32.378Z,39.37
2019-05-07T17:53:32.060Z,33.75
2019-05-07T17:54:31.829Z,33.75
2019-05-07T17:55:33.194Z,33.75
2019-05-07T17:56:32.041Z,33.75
2019-05-07T17:57:33.354Z,33.75
2019-05-07T17:58:32.599Z,33.75
2019-05-07T17:59:32.078Z,33.75
2019-05-07T18:00:32.830Z,28.12
2019-05-07T18:01:32.709Z,28.12
2019-05-07T18:02:32.686Z,28.12
2019-05-07T18:03:32.298Z,28.12
2019-05-07T18:04:33.785Z,28.12
2019-05-07T18:05:55.711Z,28.12
2019-05-07T18:06:55.707Z,22.50
2019-05-07T18:07:55.688Z,22.50
2019-05-07T18:08:55.676Z,22.50
2019-05-07T18:09:55.662Z,22.50
2019-05-07T18:10:55.653Z,22.50
2019-05-07T18:11:55.641Z,22.50
2019-05-07T18:12:55.635Z,22.50
2019-05-07T18:13:55.620Z,22.50
2019-05-07T18:14:55.608Z,16.87
2019-05-07T18:15:55.596Z,16.87
2019-05-07T18:16:55.580Z,16.87
2019-05-07T18:17:55.571Z,16.87
2019-05-07T18:18:55.564Z,16.87
2019-05-07T18:19:55.550Z,16.87
2019-05-07T18:20:55.535Z,16.87
2019-05-07T18:21:55.526Z,16.87
2019-05-07T18:22:55.520Z,16.87
2019-05-07T18:23:55.503Z,16.87
2019-05-07T18:24:55.493Z,11.25
2019-05-07T18:25:55.482Z,11.25
2019-05-07T18:26:55.465Z,11.25
2019-05-07T18:27:55.457Z,11.25
2019-05-07T18:28:55.442Z,11.25
2019-05-07T18:29:55.433Z,11.25
2019-05-07T18:30:55.423Z,5.62
2019-05-07T18:31:55.410Z,5.62
2019-05-07T18:32:55.397Z,5.62
2019-05-07T18:33:55.397Z,5.62
2019-05-07T18:34:55.381Z,5.62
2019-05-07T18:35:55.363Z,5.62
2019-05-07T18:36:55.352Z,5.62
2019-05-07T18:37:55.346Z,5.62
2019-05-07T18:38:55.342Z,0.00
2019-05-07T18:39:55.327Z,0.00
2019-05-07T18:40:55.310Z,0.00
2019-05-07T18:41:55.299Z,0.00
2019-05-07T18:42:55.287Z,0.00
2019-05-07T18:44:08.114Z,0.00
2019-05-07T18:44:56.285Z,0.00
2019-05-07T18:45:55.249Z,0.00
2019-05-07T18:46:55.240Z,0.00
2019-05-07T18:47:55.234Z,0.00
2019-05-07T18:48:55.218Z,0.00
2019-05-07T18:51:55.192Z,0.00
2019-05-07T18:52:55.175Z,0.00
2019-05-07T18:53:55.161Z,0.00
2019-05-07T18:54:55.154Z,0.00
2019-05-07T18:55:55.148Z,0.00
2019-05-07T18:56:55.134Z,0.00
2019-05-07T18:57:55.117Z,0.00
2019-05-07T18:59:55.093Z,0.00
2019-05-07T19:00:55.079Z,0.00
2019-05-07T19:01:55.074Z,0.00
2019-05-07T19:02:55.059Z,0.00
2019-05-07T19:03:55.049Z,0.00
2019-05-07T19:06:55.017Z,0.00
2019-05-07T19:08:04.621Z,0.00
2019-05-07T19:09:19.469Z,0.00
2019-05-07T19:10:19.458Z,0.00
2019-05-07T19:11:19.444Z,0.00
2019-05-07T19:13:19.425Z,0.00
2019-05-07T19:14:19.414Z,0.00
2019-05-07T19:15:19.408Z,0.00
2019-05-07T19:17:21.746Z,0.00
2019-05-07T19:18:19.371Z,0.00
2019-05-07T19:19:19.356Z,0.00
2019-05-07T19:20:21.665Z,0.00
2019-05-07T19:21:19.336Z,0.00
2019-05-07T22:07:41.918Z,0.00
